Time,TemperatureF,DewpointF,PressureIn,WindDirection,WindDirectionDegrees,WindSpeedMPH,WindSpeedGustMPH,Humidity,HourlyPrecipIn,Conditions,Clouds,dailyrainin,SoftwareType,DateUTC
2013-02-21 00:15:00,23.9,10.1,30.04,WNW,292,11.4,-999.0,55,-99.99,,,0.00,Acu-Link.com,2013-02-21 05:15:00,
2013-02-21 00:30:00,23.7,9.9,30.03,NW,315,13.5,-999.0,55,-99.99,,,0.00,Acu-Link.com,2013-02-21 05:30:00,
2013-02-21 00:45:00,23.7,9.9,30.03,NW,315,8.3,-999.0,55,-99.99,,,0.00,Acu-Link.com,2013-02-21 05:45:00,
2013-02-21 01:00:00,23.7,9.9,30.04,NW,315,12.5,-999.0,55,-99.99,,,0.00,Acu-Link.com,2013-02-21 06:00:00,
2013-02-21 01:15:00,23.7,9.9,30.04,NW,315,10.4,-999.0,55,-99.99,,,0.00,Acu-Link.com,2013-02-21 06:15:00,
2013-02-21 01:31:00,23.5,10.1,30.04,WNW,292,6.3,-999.0,56,-99.99,,,0.00,Acu-Link.com,2013-02-21 06:31:00,
2013-02-21 01:46:00,24.6,10.8,30.03,West,270,7.8,-999.0,55,-99.99,,,0.00,Acu-Link.com,2013-02-21 06:46:00,
2013-02-21 02:01:00,23.2,9.9,30.03,West,270,2.7,-999.0,56,-99.99,,,0.00,Acu-Link.com,2013-02-21 07:01:00,
2013-02-21 02:16:00,23.2,10.3,30.04,WNW,292,8.3,-999.0,57,-99.99,,,0.00,Acu-Link.com,2013-02-21 07:16:00,
2013-02-21 02:32:00,23.0,10.1,30.03,WNW,292,4.7,-999.0,57,-99.99,,,0.00,Acu-Link.com,2013-02-21 07:32:00,
2013-02-21 02:47:00,22.8,9.9,30.04,NW,315,9.4,-999.0,57,-99.99,,,0.00,Acu-Link.com,2013-02-21 07:47:00,
2013-02-21 03:02:00,23.0,9.7,30.03,NNW,337,15.5,-999.0,56,-99.99,,,0.00,Acu-Link.com,2013-02-21 08:02:00,
2013-02-21 03:17:00,23.0,9.7,30.02,NW,315,6.8,-999.0,56,-99.99,,,0.00,Acu-Link.com,2013-02-21 08:17:00,
2013-02-21 03:32:00,23.0,9.7,30.02,WNW,292,9.9,-999.0,56,-99.99,,,0.00,Acu-Link.com,2013-02-21 08:32:00,
2013-02-21 04:22:00,23.2,10.3,30.02,NW,315,11.4,-999.0,57,-99.99,,,0.00,Acu-Link.com,2013-02-21 09:22:00,
2013-02-21 04:38:00,23.5,10.5,30.02,WNW,292,10.9,-999.0,57,-99.99,,,0.00,Acu-Link.com,2013-02-21 09:38:00,
2013-02-21 04:53:00,23.4,10.4,30.04,NW,315,7.3,-999.0,57,-99.99,,,0.00,Acu-Link.com,2013-02-21 09:53:00,
2013-02-21 05:09:00,23.5,10.1,30.04,West,270,11.4,-999.0,56,-99.99,,,0.00,Acu-Link.com,2013-02-21 10:09:00,
2013-02-21 05:24:00,23.5,10.1,30.05,NNW,337,11.4,-999.0,56,-99.99,,,0.00,Acu-Link.com,2013-02-21 10:24:00,
2013-02-21 05:39:00,23.5,10.9,30.04,NW,315,8.3,-999.0,58,-99.99,,,0.00,Acu-Link.com,2013-02-21 10:39:00,
2013-02-21 05:55:00,23.2,10.3,30.05,NNW,337,9.9,-999.0,57,-99.99,,,0.00,Acu-Link.com,2013-02-21 10:55:00,
2013-02-21 06:12:00,23.0,9.7,30.06,WNW,292,16.6,-999.0,56,-99.99,,,0.00,Acu-Link.com,2013-02-21 11:12:00,
2013-02-21 07:03:00,22.8,9.5,30.06,WNW,292,13.5,-999.0,56,-99.99,,,0.00,Acu-Link.com,2013-02-21 12:03:00,
2013-02-21 07:20:00,23.0,9.3,30.07,WNW,292,8.3,-999.0,55,-99.99,,,0.00,Acu-Link.com,2013-02-21 12:20:00,
2013-02-21 07:35:00,23.0,9.3,30.07,WNW,292,7.8,-999.0,55,-99.99,,,0.00,Acu-Link.com,2013-02-21 12:35:00,
2013-02-21 07:50:00,23.5,8.9,30.08,NW,315,10.4,-999.0,53,-99.99,,,0.00,Acu-Link.com,2013-02-21 12:50:00,
2013-02-21 08:06:00,24.3,9.7,30.08,WNW,292,5.8,-999.0,53,-99.99,,,0.00,Acu-Link.com,2013-02-21 13:06:00,
2013-02-21 08:21:00,24.8,9.7,30.08,West,270,8.3,-999.0,52,-99.99,,,0.00,Acu-Link.com,2013-02-21 13:21:00,
2013-02-21 08:39:00,24.6,9.5,30.08,NW,315,10.9,-999.0,52,-99.99,,,0.00,Acu-Link.com,2013-02-21 13:39:00,
2013-02-21 08:54:00,25.5,10.8,30.09,NW,315,9.4,-999.0,53,-99.99,,,0.00,Acu-Link.com,2013-02-21 13:54:00,
2013-02-21 09:24:00,25.3,10.2,30.09,NW,315,17.6,-999.0,52,-99.99,,,0.00,Acu-Link.com,2013-02-21 14:24:00,
2013-02-21 09:42:00,25.3,10.2,30.10,NNW,337,17.1,-999.0,52,-99.99,,,0.00,Acu-Link.com,2013-02-21 14:42:00,
2013-02-21 10:18:00,27.5,11.3,30.11,NNW,337,17.1,-999.0,50,-99.99,,,0.00,Acu-Link.com,2013-02-21 15:18:00,
2013-02-21 10:45:00,28.9,11.7,30.11,NNW,337,19.1,-999.0,48,-99.99,,,0.00,Acu-Link.com,2013-02-21 15:45:00,
2013-02-21 11:01:00,29.3,11.6,30.11,NNE,22,13.0,-999.0,47,-99.99,,,0.00,Acu-Link.com,2013-02-21 16:01:00,
2013-02-21 11:24:00,28.8,11.1,30.10,NNW,337,16.6,-999.0,47,-99.99,,,0.00,Acu-Link.com,2013-02-21 16:24:00,
2013-02-21 13:07:00,33.1,13.6,30.09,NW,315,7.3,-999.0,44,-99.99,,,0.00,Acu-Link.com,2013-02-21 18:07:00,
2013-02-21 13:23:00,32.9,12.9,30.09,NW,315,15.0,-999.0,43,-99.99,,,0.00,Acu-Link.com,2013-02-21 18:23:00,
2013-02-21 13:39:00,34.0,13.9,30.09,WNW,292,13.0,-999.0,43,-99.99,,,0.00,Acu-Link.com,2013-02-21 18:39:00,
2013-02-21 13:55:00,34.3,14.7,30.08,WNW,292,11.4,-999.0,44,-99.99,,,0.00,Acu-Link.com,2013-02-21 18:55:00,
2013-02-21 14:10:00,34.2,14.1,30.09,WNW,292,19.7,-999.0,43,-99.99,,,0.00,Acu-Link.com,2013-02-21 19:10:00,
2013-02-21 14:25:00,34.7,14.0,30.09,NNW,337,11.4,-999.0,42,-99.99,,,0.00,Acu-Link.com,2013-02-21 19:25:00,
2013-02-21 14:41:00,35.2,15.0,30.09,WNW,292,12.5,-999.0,43,-99.99,,,0.00,Acu-Link.com,2013-02-21 19:41:00,
2013-02-21 14:57:00,34.9,14.2,30.09,NNW,337,15.5,-999.0,42,-99.99,,,0.00,Acu-Link.com,2013-02-21 19:57:00,
2013-02-21 15:12:00,35.2,13.9,30.09,West,270,9.9,-999.0,41,-99.99,,,0.00,Acu-Link.com,2013-02-21 20:12:00,
2013-02-21 15:27:00,36.9,16.0,30.09,NNW,337,15.5,-999.0,42,-99.99,,,0.00,Acu-Link.com,2013-02-21 20:27:00,
2013-02-21 15:42:00,35.2,13.9,30.10,NNW,337,9.4,-999.0,41,-99.99,,,0.00,Acu-Link.com,2013-02-21 20:42:00,
2013-02-21 15:57:00,35.2,13.9,30.10,NNW,337,7.3,-999.0,41,-99.99,,,0.00,Acu-Link.com,2013-02-21 20:57:00,
2013-02-21 16:13:00,34.2,13.0,30.11,WNW,292,11.4,-999.0,41,-99.99,,,0.00,Acu-Link.com,2013-02-21 21:13:00,
2013-02-21 16:28:00,35.8,13.9,30.10,NNW,337,4.2,-999.0,40,-99.99,,,0.00,Acu-Link.com,2013-02-21 21:28:00,
2013-02-21 16:43:00,35.4,13.5,30.10,NNW,337,8.3,-999.0,40,-99.99,,,0.00,Acu-Link.com,2013-02-21 21:43:00,
2013-02-21 16:58:00,35.6,14.3,30.11,West,270,8.9,-999.0,41,-99.99,,,0.00,Acu-Link.com,2013-02-21 21:58:00,
2013-02-21 17:13:00,34.2,13.0,30.11,NNW,337,12.5,-999.0,41,-99.99,,,0.00,Acu-Link.com,2013-02-21 22:13:00,
2013-02-21 17:29:00,33.6,13.0,30.12,NNW,337,8.9,-999.0,42,-99.99,,,0.00,Acu-Link.com,2013-02-21 22:29:00,
2013-02-21 17:44:00,32.5,13.0,30.13,NW,315,10.4,-999.0,44,-99.99,,,0.00,Acu-Link.com,2013-02-21 22:44:00,
2013-02-21 17:59:00,31.8,13.4,30.15,NW,315,7.3,-999.0,46,-99.99,,,0.00,Acu-Link.com,2013-02-21 22:59:00,
2013-02-21 18:14:00,30.9,13.1,30.16,NW,315,5.3,-999.0,47,-99.99,,,0.00,Acu-Link.com,2013-02-21 23:14:00,
2013-02-21 18:29:00,30.6,14.2,30.16,NW,315,5.8,-999.0,50,-99.99,,,0.00,Acu-Link.com,2013-02-21 23:29:00,
2013-02-21 18:45:00,30.2,13.8,30.17,West,270,3.7,-999.0,50,-99.99,,,0.00,Acu-Link.com,2013-02-21 23:45:00,
2013-02-21 19:00:00,29.8,13.9,30.18,NW,315,3.2,-999.0,51,-99.99,,,0.00,Acu-Link.com,2013-02-22 00:00:00,
2013-02-21 19:15:00,29.5,14.1,30.19,NNE,22,3.2,-999.0,52,-99.99,,,0.00,Acu-Link.com,2013-02-22 00:15:00,
2013-02-21 19:30:00,28.9,13.9,30.20,West,270,0.0,-999.0,53,-99.99,,,0.00,Acu-Link.com,2013-02-22 00:30:00,
2013-02-21 19:46:00,28.4,13.9,30.19,West,270,1.7,-999.0,54,-99.99,,,0.00,Acu-Link.com,2013-02-22 00:46:00,
2013-02-21 20:01:00,27.9,14.3,30.19,North,0,2.2,-999.0,56,-99.99,,,0.00,Acu-Link.com,2013-02-22 01:01:00,
2013-02-21 20:16:00,27.9,14.3,30.19,NNE,22,0.0,-999.0,56,-99.99,,,0.00,Acu-Link.com,2013-02-22 01:16:00,
2013-02-21 20:31:00,27.5,14.7,30.20,WSW,247,2.7,-999.0,58,-99.99,,,0.00,Acu-Link.com,2013-02-22 01:31:00,
2013-02-21 20:46:00,27.0,15.0,30.21,WSW,247,2.7,-999.0,60,-99.99,,,0.00,Acu-Link.com,2013-02-22 01:46:00,
2013-02-21 21:02:00,27.0,16.1,30.20,WNW,292,3.2,-999.0,63,-99.99,,,0.00,Acu-Link.com,2013-02-22 02:02:00,
2013-02-21 21:17:00,26.2,16.4,30.20,NNE,22,1.7,-999.0,66,-99.99,,,0.00,Acu-Link.com,2013-02-22 02:17:00,
2013-02-21 21:32:00,25.7,16.3,30.21,NNE,22,0.0,-999.0,67,-99.99,,,0.00,Acu-Link.com,2013-02-22 02:32:00,
2013-02-21 21:47:00,25.0,16.9,30.21,ENE,67,2.2,-999.0,71,-99.99,,,0.00,Acu-Link.com,2013-02-22 02:47:00,
2013-02-21 22:02:00,25.2,16.1,30.21,NE,45,0.0,-999.0,68,-99.99,,,0.00,Acu-Link.com,2013-02-22 03:02:00,
2013-02-21 22:18:00,24.8,17.1,30.21,ENE,67,1.1,-999.0,72,-99.99,,,0.00,Acu-Link.com,2013-02-22 03:18:00,
2013-02-21 22:33:00,25.7,16.3,30.21,NNE,22,2.7,-999.0,67,-99.99,,,0.00,Acu-Link.com,2013-02-22 03:33:00,
2013-02-21 22:48:00,25.0,17.6,30.22,NNE,22,2.7,-999.0,73,-99.99,,,0.00,Acu-Link.com,2013-02-22 03:48:00,
2013-02-21 23:05:00,25.3,16.6,30.23,WSW,247,1.1,-999.0,69,-99.99,,,0.00,Acu-Link.com,2013-02-22 04:05:00,
2013-02-21 23:28:00,24.3,20.2,30.23,West,270,1.7,-999.0,84,-99.99,,,0.00,Acu-Link.com,2013-02-22 04:28:00,